Time;durP1;ratioP1;P1;durP2;ratioP2;P2;SDS_P1;SDS_P2;PMS_P1;PMS_P2;Temp;Humidity;BMP_temperature;BMP_pressure;BME280_temperature;BME280_humidity;BME280_pressure;Samples;Min_cycle;Max_cycle;Signal;HPM_P1;HPM_P2
2022/06/19 00:01:59;;;;;;;26.77;9.40;;;20.80;50.00;;;;;;5007849;28;20234;-91
2022/06/19 00:04:25;;;;;;;7.80;3.20;;;20.60;49.50;;;;;;5003327;28;20181;-91
2022/06/19 00:06:51;;;;;;;37.17;13.27;;;20.60;51.40;;;;;;5000324;28;20184;-93
2022/06/19 00:09:17;;;;;;;9.97;3.20;;;20.50;51.30;;;;;;5004883;28;20189;-85
2022/06/19 00:11:43;;;;;;;10.07;3.00;;;20.40;53.50;;;;;;5019050;28;20192;-90
2022/06/19 00:14:09;;;;;;;11.53;3.27;;;20.40;54.40;;;;;;5004251;28;20206;-91
2022/06/19 00:16:36;;;;;;;24.47;10.27;;;20.50;53.60;;;;;;5005924;28;20212;-92
2022/06/19 00:19:03;;;;;;;23.00;7.93;;;20.50;51.90;;;;;;5004196;28;20226;-92
2022/06/19 00:21:30;;;;;;;8.03;2.90;;;20.40;52.40;;;;;;5009193;28;20223;-94
2022/06/19 00:23:58;;;;;;;13.00;4.80;;;20.20;54.20;;;;;;5000884;28;20181;-92
2022/06/19 00:26:25;;;;;;;10.70;3.93;;;20.20;57.90;;;;;;5001681;28;20223;-91
2022/06/19 00:28:51;;;;;;;11.33;3.70;;;20.00;59.20;;;;;;5004267;28;20177;-90
2022/06/19 00:31:18;;;;;;;11.77;3.43;;;19.90;61.30;;;;;;5017735;28;20158;-90
2022/06/19 00:33:45;;;;;;;11.30;3.80;;;19.90;63.10;;;;;;5036453;28;20180;-91
2022/06/19 00:36:13;;;;;;;10.00;3.20;;;19.70;65.90;;;;;;5019653;28;20194;-90
2022/06/19 00:38:40;;;;;;;10.67;3.40;;;19.90;66.10;;;;;;5016979;28;20274;-91
2022/06/19 00:41:06;;;;;;;7.07;2.83;;;19.70;66.20;;;;;;5016391;28;20162;-88
2022/06/19 00:44:02;;;;;;;9.43;3.00;;;19.70;67.50;;;;;;5008882;28;20289;-87
2022/06/19 00:46:38;;;;;;;7.57;3.10;;;19.60;68.10;;;;;;5039825;28;20250;-85
2022/06/19 00:49:05;;;;;;;8.43;2.87;;;19.40;71.30;;;;;;5013759;28;20178;-85
2022/06/19 00:51:32;;;;;;;13.30;3.60;;;19.30;74.80;;;;;;5017638;28;20202;-85
2022/06/19 00:53:59;;;;;;;10.20;3.07;;;19.40;73.10;;;;;;5002567;28;20192;-85
2022/06/19 00:56:48;;;;;;;7.93;2.53;;;19.30;70.00;;;;;;5030504;28;20189;-84
2022/06/19 00:59:15;;;;;;;11.30;3.40;;;19.10;70.10;;;;;;4996172;28;20210;-85
2022/06/19 01:01:46;;;;;;;8.97;2.57;;;18.90;75.90;;;;;;4995782;28;20170;-84
2022/06/19 01:04:48;;;;;;;13.20;4.00;;;18.90;75.90;;;;;;4997072;28;20187;-83
2022/06/19 01:07:15;;;;;;;12.43;3.73;;;18.70;76.50;;;;;;5005648;28;20189;-85
2022/06/19 01:09:41;;;;;;;10.87;3.90;;;18.50;75.90;;;;;;4995425;28;20168;-85
2022/06/19 01:12:11;;;;;;;13.57;4.43;;;18.50;74.50;;;;;;5000516;28;20202;-89
2022/06/19 01:14:39;;;;;;;14.87;4.23;;;18.30;75.40;;;;;;5051789;28;20188;-84
2022/06/19 01:17:06;;;;;;;15.93;3.97;;;18.30;73.60;;;;;;5019415;28;20178;-85
2022/06/19 01:19:36;;;;;;;6.87;3.60;;;18.20;70.40;;;;;;5015756;28;20201;-83
2022/06/19 01:22:24;;;;;;;12.17;4.40;;;18.20;63.70;;;;;;5019549;28;20175;-85
2022/06/19 01:25:05;;;;;;;10.30;3.50;;;18.10;65.50;;;;;;5050776;28;20182;-90
2022/06/19 01:30:26;;;;;;;10.07;3.00;;;18.00;63.60;;;;;;4999333;28;21082;-85
2022/06/19 01:32:57;;;;;;;12.70;3.77;;;17.80;60.50;;;;;;5031545;28;20401;-84
2022/06/19 01:35:25;;;;;;;9.37;3.27;;;17.70;58.80;;;;;;5000880;28;20183;-84
2022/06/19 01:38:29;;;;;;;18.60;3.43;;;17.70;55.80;;;;;;4998502;28;20218;-85
2022/06/19 01:41:11;;;;;;;10.13;1.97;;;17.70;45.10;;;;;;4994965;28;20203;-84
2022/06/19 01:43:43;;;;;;;9.80;2.03;;;17.50;23.10;;;;;;4996221;28;20164;-84
2022/06/19 01:46:15;;;;;;;10.73;2.10;;;17.50;15.80;;;;;;4997126;28;20170;-86
2022/06/19 01:48:45;;;;;;;11.63;2.87;;;17.50;1.00;;;;;;4996945;28;20589;-92
2022/06/19 01:51:11;;;;;;;7.57;2.10;;;17.40;1.00;;;;;;5012668;28;20261;-91
2022/06/19 01:53:42;;;;;;;11.43;2.20;;;17.40;1.00;;;;;;4997655;28;20171;-91
2022/06/19 01:56:10;;;;;;;8.73;1.73;;;17.30;1.00;;;;;;4999059;28;20626;-84
2022/06/19 01:58:40;;;;;;;9.17;1.73;;;17.40;1.00;;;;;;5045645;28;20190;-87
2022/06/19 02:01:08;;;;;;;6.97;1.97;;;17.40;1.00;;;;;;5011497;28;20186;-85
2022/06/19 02:03:39;;;;;;;7.53;1.93;;;17.40;1.00;;;;;;5020574;28;20175;-85
2022/06/19 02:06:09;;;;;;;10.53;1.67;;;17.40;1.00;;;;;;4999853;28;20809;-88
2022/06/19 02:08:40;;;;;;;7.03;1.90;;;17.30;1.00;;;;;;4997081;28;20627;-90
2022/06/19 02:11:06;;;;;;;7.90;1.80;;;17.20;1.00;;;;;;5029644;28;20603;-92
2022/06/19 02:13:34;;;;;;;8.03;1.83;;;17.30;1.00;;;;;;4999789;28;20195;-84
2022/06/19 02:16:04;;;;;;;13.73;2.10;;;17.30;1.00;;;;;;4994771;28;20566;-88
2022/06/19 02:18:37;;;;;;;13.80;2.40;;;17.30;1.00;;;;;;4997795;28;20215;-89
2022/06/19 02:21:05;;;;;;;10.40;1.80;;;17.20;1.00;;;;;;5001126;28;20198;-85
2022/06/19 02:23:37;;;;;;;14.07;2.27;;;17.20;1.00;;;;;;4996912;28;20195;-89
2022/06/19 02:26:09;;;;;;;7.57;1.87;;;17.10;1.00;;;;;;4993883;28;20254;-86
2022/06/19 02:28:36;;;;;;;10.80;2.10;;;17.10;1.00;;;;;;4995176;28;20588;-84
2022/06/19 02:31:04;;;;;;;10.93;2.17;;;17.20;1.00;;;;;;4996139;28;20179;-85
2022/06/19 02:33:33;;;;;;;7.83;2.03;;;17.20;1.00;;;;;;4995216;28;20588;-85
2022/06/19 02:35:58;;;;;;;8.30;2.13;;;17.30;1.00;;;;;;4994297;28;20187;-84
2022/06/19 02:38:24;;;;;;;7.43;1.50;;;17.30;1.00;;;;;;4993591;28;20554;-85
2022/06/19 02:41:08;;;;;;;8.13;2.10;;;17.30;1.00;;;;;;4993513;28;20175;-84
2022/06/19 02:43:34;;;;;;;10.87;1.77;;;17.20;1.00;;;;;;4993608;28;20175;-85
2022/06/19 02:46:05;;;;;;;12.93;2.77;;;17.20;1.00;;;;;;4993884;28;20224;-87
2022/06/19 02:48:32;;;;;;;7.33;2.10;;;17.30;1.00;;;;;;4994832;28;20174;-87
2022/06/19 02:51:00;;;;;;;7.53;1.50;;;17.30;1.00;;;;;;4993393;28;20190;-85
2022/06/19 02:53:28;;;;;;;12.27;1.67;;;17.30;1.00;;;;;;4993322;28;20182;-84
2022/06/19 02:55:54;;;;;;;5.60;1.60;;;17.20;1.00;;;;;;4994705;28;20171;-84
2022/06/19 02:58:21;;;;;;;7.30;1.97;;;17.30;1.00;;;;;;4993463;28;20667;-84
2022/06/19 03:00:49;;;;;;;10.63;1.87;;;17.10;1.00;;;;;;4993789;28;20175;-86
2022/06/19 03:03:35;;;;;;;8.00;1.43;;;17.10;1.00;;;;;;4996394;28;20182;-83
2022/06/19 03:06:01;;;;;;;4.50;1.63;;;17.10;1.00;;;;;;5027545;28;20707;-85
2022/06/19 03:08:27;;;;;;;7.83;1.50;;;17.00;1.00;;;;;;4994774;28;20290;-83
2022/06/19 03:10:53;;;;;;;8.17;1.50;;;17.10;1.00;;;;;;4995077;28;20202;-83
2022/06/19 03:13:20;;;;;;;5.53;1.30;;;17.00;1.00;;;;;;4994079;28;20218;-84
2022/06/19 03:15:46;;;;;;;11.00;1.90;;;17.10;1.00;;;;;;5009662;28;20194;-85
2022/06/19 03:18:12;;;;;;;6.83;1.57;;;17.00;1.00;;;;;;4993425;28;20706;-86
2022/06/19 03:20:38;;;;;;;5.80;1.40;;;17.00;1.00;;;;;;5009876;28;20171;-84
2022/06/19 03:23:03;;;;;;;4.47;1.50;;;16.90;1.00;;;;;;4993960;28;20202;-85
2022/06/19 03:25:29;;;;;;;8.63;1.90;;;17.00;1.00;;;;;;5015587;28;20167;-84
2022/06/19 03:27:57;;;;;;;7.90;1.83;;;17.00;1.00;;;;;;5022580;28;20222;-85
2022/06/19 03:30:23;;;;;;;5.83;1.50;;;17.00;1.00;;;;;;4995826;28;20175;-85
2022/06/19 03:33:42;;;;;;;7.50;1.87;;;17.00;1.00;;;;;;4994836;28;20190;-86
2022/06/19 03:36:13;;;;;;;4.57;1.07;;;17.00;1.00;;;;;;4994069;28;20241;-84
2022/06/19 03:38:41;;;;;;;7.60;1.67;;;16.90;1.00;;;;;;4993505;28;20215;-84
2022/06/19 03:41:09;;;;;;;6.87;1.20;;;16.80;1.00;;;;;;4992643;28;20539;-87
2022/06/19 03:43:35;;;;;;;3.63;1.10;;;16.80;1.00;;;;;;4993605;28;20182;-85
2022/06/19 03:46:12;;;;;;;7.47;1.87;;;16.70;1.00;;;;;;5016307;28;20179;-84
2022/06/19 03:48:39;;;;;;;6.40;1.60;;;16.70;1.00;;;;;;5009118;28;20316;-84
2022/06/19 03:51:05;;;;;;;4.67;1.50;;;16.60;1.00;;;;;;5030343;28;20195;-84
2022/06/19 03:53:35;;;;;;;4.83;1.60;;;16.60;1.00;;;;;;4997273;28;20171;-86
2022/06/19 03:56:04;;;;;;;7.70;1.60;;;16.60;1.00;;;;;;4997296;28;20175;-91
2022/06/19 03:58:46;;;;;;;6.07;1.30;;;16.80;1.00;;;;;;4998585;28;20198;-93
2022/06/19 04:01:22;;;;;;;6.57;1.40;;;16.80;1.00;;;;;;4998804;28;20534;-91
2022/06/19 04:03:50;;;;;;;6.07;1.50;;;16.80;1.00;;;;;;4999712;28;20178;-92
2022/06/19 04:06:18;;;;;;;6.53;1.40;;;16.90;1.00;;;;;;4998509;28;20278;-92
2022/06/19 04:08:46;;;;;;;5.27;1.47;;;16.80;1.00;;;;;;4998241;28;20177;-89
2022/06/19 04:11:13;;;;;;;6.23;1.33;;;16.80;1.00;;;;;;4999172;28;20186;-87
2022/06/19 04:13:39;;;;;;;7.80;1.67;;;16.90;1.00;;;;;;4996934;28;20596;-91
2022/06/19 04:16:07;;;;;;;5.63;1.63;;;16.90;1.00;;;;;;4997894;28;20270;-87
2022/06/19 04:18:34;;;;;;;5.73;1.67;;;16.90;1.00;;;;;;4998521;28;20229;-92
2022/06/19 04:21:01;;;;;;;5.43;1.50;;;16.80;1.00;;;;;;4998030;28;20172;-91
2022/06/19 04:23:28;;;;;;;4.50;1.23;;;16.70;1.00;;;;;;4999495;28;20184;-86
2022/06/19 04:25:54;;;;;;;5.47;1.33;;;16.70;1.00;;;;;;5000003;28;20183;-95
2022/06/19 04:28:24;;;;;;;4.90;1.30;;;16.80;1.00;;;;;;4999037;28;20189;-93
2022/06/19 04:30:54;;;;;;;10.83;2.00;;;16.80;1.00;;;;;;5014741;28;20179;-89
2022/06/19 04:33:21;;;;;;;6.13;1.50;;;16.70;1.00;;;;;;5001173;28;20646;-91
2022/06/19 04:35:47;;;;;;;5.00;1.43;;;16.70;1.00;;;;;;4998782;28;20196;-89
2022/06/19 04:38:14;;;;;;;5.60;1.33;;;16.60;1.00;;;;;;4997873;28;20210;-88
2022/06/19 04:40:40;;;;;;;10.87;1.70;;;16.60;1.00;;;;;;4999080;28;20171;-93
2022/06/19 04:43:06;;;;;;;7.17;1.90;;;16.70;1.00;;;;;;4997926;28;20181;-87
2022/06/19 04:45:33;;;;;;;5.10;1.30;;;16.90;1.00;;;;;;4997363;28;20182;-93
2022/06/19 04:47:59;;;;;;;5.50;1.23;;;16.90;1.00;;;;;;4997450;28;20178;-94
2022/06/19 04:50:25;;;;;;;6.90;1.67;;;16.90;1.00;;;;;;4998261;28;20221;-92
2022/06/19 04:52:51;;;;;;;5.67;1.57;;;16.90;1.00;;;;;;4999735;28;20223;-92
2022/06/19 04:55:18;;;;;;;8.03;1.60;;;16.90;1.00;;;;;;5018619;28;20611;-89
2022/06/19 04:57:44;;;;;;;5.10;1.20;;;16.90;1.00;;;;;;5020065;28;20217;-84
2022/06/19 05:00:14;;;;;;;5.63;1.40;;;17.00;1.00;;;;;;5018657;28;20183;-84
2022/06/19 05:02:41;;;;;;;3.80;1.17;;;17.00;1.00;;;;;;5019189;28;20165;-83
2022/06/19 05:05:12;;;;;;;5.37;1.60;;;17.10;1.00;;;;;;5019248;28;20171;-84
2022/06/19 05:07:38;;;;;;;5.60;1.50;;;17.10;1.00;;;;;;5013193;28;20182;-89
2022/06/19 05:10:06;;;;;;;5.40;1.50;;;17.20;1.00;;;;;;5010812;28;20170;-85
2022/06/19 05:12:31;;;;;;;8.30;1.60;;;17.10;1.00;;;;;;5010613;28;20218;-86
2022/06/19 05:14:57;;;;;;;3.93;1.43;;;17.10;1.00;;;;;;5012718;28;20174;-90
2022/06/19 05:17:24;;;;;;;7.67;1.73;;;17.10;1.00;;;;;;5048796;28;20191;-87
2022/06/19 05:19:49;;;;;;;4.03;1.47;;;17.10;1.00;;;;;;5014120;28;20156;-89
2022/06/19 05:22:16;;;;;;;9.50;1.57;;;17.20;1.00;;;;;;5008198;28;20198;-91
2022/06/19 05:24:45;;;;;;;6.23;1.53;;;17.20;1.00;;;;;;4999562;28;20187;-91
2022/06/19 05:27:16;;;;;;;8.03;1.20;;;17.40;1.00;;;;;;4997626;28;20174;-91
2022/06/19 05:29:45;;;;;;;4.20;1.50;;;17.60;1.00;;;;;;4997662;28;20726;-91
2022/06/19 05:32:12;;;;;;;4.60;1.50;;;17.70;1.00;;;;;;4997616;28;20167;-91
2022/06/19 05:34:45;;;;;;;5.70;1.40;;;17.70;1.00;;;;;;4998979;28;20171;-92
2022/06/19 05:37:33;;;;;;;6.60;1.20;;;17.60;1.00;;;;;;5015860;28;20233;-84
2022/06/19 05:39:59;;;;;;;6.57;1.30;;;17.30;1.00;;;;;;5013318;28;20164;-84
2022/06/19 05:42:26;;;;;;;5.27;1.57;;;17.00;1.00;;;;;;4998550;28;20182;-88
2022/06/19 05:44:53;;;;;;;6.77;1.70;;;16.80;1.00;;;;;;4999309;28;20163;-88
2022/06/19 05:47:18;;;;;;;5.90;1.67;;;16.60;1.00;;;;;;4996492;28;20175;-88
2022/06/19 05:49:46;;;;;;;6.63;1.20;;;16.40;1.00;;;;;;4996482;28;20187;-85
2022/06/19 05:52:19;;;;;;;9.17;1.73;;;16.40;1.00;;;;;;4995909;28;20217;-84
2022/06/19 05:54:45;;;;;;;11.17;2.00;;;16.50;1.00;;;;;;4995611;28;20169;-85
2022/06/19 05:57:11;;;;;;;6.93;1.60;;;16.50;1.00;;;;;;4995112;28;20606;-85
2022/06/19 05:59:38;;;;;;;5.23;1.40;;;16.50;1.00;;;;;;4996065;28;20230;-85
2022/06/19 06:02:05;;;;;;;4.83;1.40;;;16.60;1.00;;;;;;4996360;28;20167;-85
2022/06/19 06:04:31;;;;;;;6.50;1.53;;;16.50;1.00;;;;;;4997624;28;20167;-87
2022/06/19 06:06:56;;;;;;;12.77;1.43;;;16.40;1.00;;;;;;5048399;28;20233;-86
2022/06/19 06:09:22;;;;;;;5.67;1.20;;;16.50;1.00;;;;;;5016844;28;20191;-83
2022/06/19 06:11:48;;;;;;;6.50;1.97;;;16.40;1.00;;;;;;5015536;28;20179;-86
2022/06/19 06:14:17;;;;;;;7.40;1.50;;;16.50;1.00;;;;;;5015033;28;20222;-86
2022/06/19 06:16:43;;;;;;;4.03;1.13;;;16.40;1.00;;;;;;5019251;28;20190;-82
2022/06/19 06:19:22;;;;;;;5.23;1.80;;;16.40;1.00;;;;;;5018851;28;20286;-87
2022/06/19 06:21:49;;;;;;;4.90;1.40;;;16.20;1.00;;;;;;5018922;28;20197;-87
2022/06/19 06:24:16;;;;;;;5.57;1.70;;;16.20;1.00;;;;;;5018898;28;20171;-88
2022/06/19 06:26:48;;;;;;;7.67;1.70;;;16.00;1.00;;;;;;5019499;28;20179;-87
2022/06/19 06:29:16;;;;;;;6.57;1.70;;;15.90;1.00;;;;;;5018890;28;20203;-85
2022/06/19 06:31:56;;;;;;;5.80;1.93;;;15.70;1.00;;;;;;5019704;28;20171;-85
2022/06/19 06:34:32;;;;;;;3.43;1.30;;;15.60;1.00;;;;;;5019066;28;20238;-89
2022/06/19 06:37:22;;;;;;;4.90;1.50;;;15.40;1.00;;;;;;5018584;28;20212;-86
2022/06/19 06:39:57;;;;;;;5.60;1.47;;;15.40;1.00;;;;;;5015273;28;20181;-85
2022/06/19 06:45:45;;;;;;;6.83;1.70;;;15.20;7.70;;;;;;5009584;28;20175;-83
2022/06/19 06:48:12;;;;;;;7.93;1.57;;;15.40;8.90;;;;;;5030013;28;20270;-83
2022/06/19 06:50:42;;;;;;;7.40;2.00;;;15.50;3.80;;;;;;5015598;28;20191;-85
2022/06/19 06:53:09;;;;;;;7.13;1.57;;;15.70;1.00;;;;;;5012953;28;20171;-87
2022/06/19 06:55:43;;;;;;;9.43;1.37;;;15.90;1.00;;;;;;5014809;28;20198;-87
2022/06/19 06:58:10;;;;;;;7.40;1.70;;;15.90;1.00;;;;;;5033330;28;20201;-87
2022/06/19 07:00:42;;;;;;;6.03;1.83;;;16.00;1.00;;;;;;5033349;28;20226;-84
2022/06/19 07:03:10;;;;;;;6.10;1.80;;;15.90;1.00;;;;;;5018223;28;20171;-88
2022/06/19 07:05:46;;;;;;;9.40;1.83;;;15.70;3.10;;;;;;5010358;28;20167;-86
2022/06/19 07:08:16;;;;;;;10.43;2.13;;;15.90;5.20;;;;;;5007440;28;20183;-89
2022/06/19 07:10:44;;;;;;;8.93;1.90;;;16.20;1.00;;;;;;5012470;28;20191;-87
2022/06/19 07:13:10;;;;;;;10.27;2.37;;;16.30;4.00;;;;;;5013641;28;20191;-87
2022/06/19 07:15:36;;;;;;;12.30;2.20;;;16.30;17.80;;;;;;5003770;28;20190;-86
2022/06/19 07:18:12;;;;;;;6.30;2.10;;;15.90;28.30;;;;;;5012238;28;20218;-87
2022/06/19 07:20:52;;;;;;;9.53;2.50;;;15.80;30.10;;;;;;4995109;28;20228;-88
2022/06/19 07:23:20;;;;;;;9.70;2.33;;;15.50;43.10;;;;;;4996491;28;20163;-87
2022/06/19 07:26:01;;;;;;;9.93;2.20;;;15.30;58.70;;;;;;5000083;28;20175;-88
2022/06/19 07:28:33;;;;;;;5.57;1.93;;;15.20;65.30;;;;;;5000668;28;20661;-90
2022/06/19 07:31:01;;;;;;;7.57;2.23;;;15.00;69.30;;;;;;5004624;28;20220;-87
2022/06/19 07:33:27;;;;;;;11.50;2.87;;;14.90;77.70;;;;;;5018901;28;20230;-87
2022/06/19 07:35:54;;;;;;;5.70;1.70;;;14.80;90.00;;;;;;5019926;28;20254;-87
2022/06/19 07:38:19;;;;;;;8.93;2.37;;;14.70;87.10;;;;;;5018782;28;20214;-88
2022/06/19 07:40:45;;;;;;;7.13;2.27;;;14.70;90.90;;;;;;5018428;28;20175;-86
2022/06/19 07:43:12;;;;;;;6.97;1.77;;;14.50;93.10;;;;;;5018737;28;20259;-88
2022/06/19 07:45:38;;;;;;;7.63;2.17;;;14.40;94.40;;;;;;5022049;28;20170;-87
2022/06/19 07:50:54;;;;;;;9.43;3.17;;;14.50;97.40;;;;;;5019934;28;20203;-87
2022/06/19 07:53:20;;;;;;;10.13;2.60;;;14.50;98.30;;;;;;5017501;28;20173;-87
2022/06/19 07:55:46;;;;;;;8.13;2.47;;;14.60;98.90;;;;;;5004333;28;20238;-85
2022/06/19 07:58:12;;;;;;;8.10;2.40;;;14.60;98.90;;;;;;4997476;28;20207;-86
2022/06/19 08:00:38;;;;;;;9.57;2.53;;;14.70;98.90;;;;;;4997169;28;20175;-86
2022/06/19 08:03:05;;;;;;;7.30;2.67;;;14.80;98.80;;;;;;5000944;28;20175;-86
2022/06/19 08:05:36;;;;;;;8.53;2.80;;;14.90;99.90;;;;;;5013598;28;20179;-87
2022/06/19 08:08:05;;;;;;;11.33;2.60;;;15.10;98.70;;;;;;5020126;28;20229;-86
2022/06/19 08:10:37;;;;;;;10.67;2.70;;;15.40;97.60;;;;;;5017854;28;20182;-88
2022/06/19 08:13:04;;;;;;;11.93;2.97;;;15.60;94.40;;;;;;5018869;28;20258;-94
2022/06/19 08:15:32;;;;;;;10.93;2.97;;;15.80;92.40;;;;;;5022648;28;20228;-91
2022/06/19 08:18:04;;;;;;;9.77;2.80;;;16.00;90.60;;;;;;5024443;28;20288;-89
2022/06/19 08:20:31;;;;;;;11.83;2.50;;;16.10;71.90;;;;;;5009081;28;20175;-87
2022/06/19 08:22:57;;;;;;;7.93;2.07;;;16.20;68.90;;;;;;5021948;28;20178;-87
2022/06/19 08:25:24;;;;;;;8.97;2.47;;;16.20;61.60;;;;;;5018877;28;20178;-88
2022/06/19 08:27:52;;;;;;;9.57;2.33;;;16.20;62.20;;;;;;5021809;28;20178;-88
2022/06/19 08:30:34;;;;;;;8.70;2.23;;;16.20;64.30;;;;;;5019570;28;20205;-88
2022/06/19 08:33:01;;;;;;;8.60;2.53;;;16.20;53.90;;;;;;5020904;28;20189;-87
2022/06/19 08:35:32;;;;;;;7.47;2.17;;;16.10;55.60;;;;;;5018685;28;20182;-89
2022/06/19 08:38:04;;;;;;;9.13;2.30;;;15.90;53.00;;;;;;5024114;28;20611;-88
2022/06/19 08:40:45;;;;;;;11.27;3.03;;;15.80;56.90;;;;;;5021393;28;20202;-90
2022/06/19 08:43:34;;;;;;;7.43;2.17;;;15.90;65.20;;;;;;5003894;28;20191;-87
2022/06/19 08:46:21;;;;;;;8.83;2.63;;;15.80;60.30;;;;;;5007176;28;20195;-92
2022/06/19 08:49:24;;;;;;;8.40;4.10;;;15.60;66.90;;;;;;5021776;28;20185;-85
2022/06/19 08:52:04;;;;;;;8.70;3.43;;;15.50;74.90;;;;;;5031174;28;20240;-82
2022/06/19 08:54:36;;;;;;;9.93;3.37;;;15.30;80.30;;;;;;5033357;28;20182;-84
2022/06/19 08:57:21;;;;;;;7.07;3.33;;;15.40;84.80;;;;;;5026932;28;20168;-92
2022/06/19 08:59:57;;;;;;;10.47;3.57;;;15.40;86.20;;;;;;5023262;28;20197;-91
2022/06/19 09:02:39;;;;;;;10.07;3.83;;;15.40;84.50;;;;;;5014242;28;20197;-92
2022/06/19 09:05:45;;;;;;;8.57;3.43;;;15.50;83.10;;;;;;5019362;28;20233;-93
2022/06/19 09:08:39;;;;;;;7.40;2.67;;;15.50;68.40;;;;;;5031306;28;20165;-89
2022/06/19 09:11:49;;;;;;;7.00;2.60;;;15.60;65.00;;;;;;5037582;28;20214;-84
2022/06/19 09:14:42;;;;;;;7.70;2.93;;;15.70;59.90;;;;;;5036323;28;20186;-85
2022/06/19 09:17:39;;;;;;;9.33;3.43;;;15.80;58.20;;;;;;5035365;28;20189;-89
2022/06/19 09:20:40;;;;;;;6.20;2.63;;;16.00;61.60;;;;;;5031977;28;20173;-92
2022/06/19 09:23:30;;;;;;;10.23;3.20;;;16.20;60.00;;;;;;5025960;28;20650;-85
2022/06/19 09:26:08;;;;;;;9.57;2.90;;;16.20;54.40;;;;;;5025371;28;20164;-84
2022/06/19 09:29:14;;;;;;;8.27;3.00;;;16.10;53.70;;;;;;5024795;28;20233;-82
2022/06/19 09:31:59;;;;;;;9.60;2.97;;;16.00;51.90;;;;;;5014339;28;20201;-86
2022/06/19 09:34:46;;;;;;;9.40;2.67;;;16.00;56.50;;;;;;5026924;28;20626;-87
2022/06/19 09:37:24;;;;;;;8.37;3.10;;;16.10;58.90;;;;;;5005235;28;20718;-85
2022/06/19 09:40:05;;;;;;;7.27;2.30;;;16.10;45.90;;;;;;5002939;28;20196;-90
2022/06/19 09:42:58;;;;;;;7.83;2.67;;;16.20;42.10;;;;;;5001982;28;20167;-85
2022/06/19 09:45:42;;;;;;;6.73;2.00;;;16.30;31.10;;;;;;5003815;28;20171;-86
2022/06/19 09:48:21;;;;;;;10.83;3.30;;;16.20;30.40;;;;;;5003483;28;20201;-88
2022/06/19 09:51:05;;;;;;;9.23;2.40;;;16.50;35.10;;;;;;5024203;28;20261;-87
2022/06/19 09:54:03;;;;;;;7.40;2.20;;;16.40;37.80;;;;;;5021563;28;20182;-88
2022/06/19 09:56:50;;;;;;;6.93;2.47;;;16.60;30.70;;;;;;5020515;28;20189;-86
2022/06/19 09:59:23;;;;;;;8.03;2.43;;;16.60;31.50;;;;;;5023372;28;20240;-85
2022/06/19 10:01:58;;;;;;;8.73;2.93;;;16.70;30.10;;;;;;5005445;28;20170;-86
2022/06/19 10:04:40;;;;;;;7.47;2.37;;;16.70;27.10;;;;;;5021006;28;20178;-88
2022/06/19 10:07:32;;;;;;;8.10;2.33;;;16.60;32.90;;;;;;5020719;28;20209;-87
2022/06/19 10:10:35;;;;;;;7.23;2.97;;;17.00;27.80;;;;;;5022358;28;20208;-84
2022/06/19 10:13:14;;;;;;;10.33;2.60;;;17.00;27.20;;;;;;5007015;28;20173;-86
2022/06/19 10:15:44;;;;;;;6.63;2.43;;;17.10;19.70;;;;;;5021913;28;20220;-85
2022/06/19 10:18:17;;;;;;;7.87;2.93;;;17.10;16.80;;;;;;5025517;28;20225;-86
2022/06/19 10:20:46;;;;;;;5.40;2.33;;;17.30;11.40;;;;;;5021465;28;20181;-87
2022/06/19 10:23:37;;;;;;;8.27;2.53;;;17.40;1.00;;;;;;5017475;28;20197;-88
2022/06/19 10:26:34;;;;;;;8.13;2.83;;;17.50;1.00;;;;;;5023859;28;20174;-86
2022/06/19 10:29:43;;;;;;;8.17;2.57;;;17.50;1.00;;;;;;5020184;28;20174;-88
2022/06/19 10:32:57;;;;;;;7.67;2.60;;;17.40;1.00;;;;;;5009491;28;20237;-92
2022/06/19 10:35:28;;;;;;;9.60;2.67;;;17.60;1.00;;;;;;5005934;28;20186;-91
2022/06/19 10:38:24;;;;;;;11.17;3.43;;;17.90;1.00;;;;;;5012371;28;20209;-92
2022/06/19 10:42:00;;;;;;;7.30;2.63;;;17.90;1.00;;;;;;5017339;28;20185;-91
2022/06/19 10:44:16;;;;;;;8.50;3.07;;;17.80;1.00;;;;;;5031792;28;20647;-86
2022/06/19 10:46:49;;;;;;;11.17;2.63;;;18.00;1.00;;;;;;5028942;28;20149;-89
2022/06/19 10:49:54;;;;;;;7.83;2.87;;;18.00;1.00;;;;;;5018938;28;20163;-92
2022/06/19 10:52:44;;;;;;;7.63;2.37;;;18.00;1.00;;;;;;5051577;28;20213;-89
2022/06/19 10:55:48;;;;;;;8.30;2.30;;;17.90;1.00;;;;;;5051211;28;20162;-87
2022/06/19 10:58:25;;;;;;;7.97;2.73;;;17.80;1.00;;;;;;5051229;28;20212;-87
2022/06/19 11:01:06;;;;;;;7.93;2.90;;;17.80;1.00;;;;;;5048863;28;20225;-87
2022/06/19 11:07:25;;;;;;;8.10;2.93;;;18.20;1.00;;;;;;5054962;28;20172;-91
2022/06/19 11:10:06;;;;;;;7.33;2.80;;;18.50;1.00;;;;;;5056370;28;20184;-84
2022/06/19 11:13:21;;;;;;;8.43;3.20;;;18.50;1.00;;;;;;5017910;28;20186;-88
2022/06/19 11:16:03;;;;;;;9.23;3.10;;;18.60;1.00;;;;;;5018142;28;20187;-87
2022/06/19 11:18:43;;;;;;;8.50;3.17;;;18.80;1.00;;;;;;5017454;28;20222;-86
2022/06/19 11:21:20;;;;;;;8.30;2.83;;;18.80;1.00;;;;;;5017000;28;20151;-87
2022/06/19 11:24:24;;;;;;;7.70;2.67;;;18.70;1.00;;;;;;5016975;28;20172;-88
2022/06/19 11:27:15;;;;;;;7.97;2.90;;;18.50;1.00;;;;;;5015118;28;20158;-87
2022/06/19 11:33:15;;;;;;;7.53;3.20;;;18.70;1.00;;;;;;5018010;28;20170;-88
2022/06/19 11:36:08;;;;;;;9.83;3.30;;;19.00;1.00;;;;;;5026349;28;20197;-85
2022/06/19 11:41:56;;;;;;;8.77;2.97;;;19.30;1.00;;;;;;5037225;28;20146;-86
2022/06/19 11:44:52;;;;;;;7.67;3.30;;;18.90;1.00;;;;;;5037523;28;20159;-89
2022/06/19 11:47:58;;;;;;;11.40;3.33;;;18.60;1.00;;;;;;5028041;28;20190;-86
2022/06/19 11:50:51;;;;;;;8.07;3.27;;;18.80;1.00;;;;;;5021460;28;20293;-88
2022/06/19 11:53:28;;;;;;;8.70;3.10;;;18.80;1.00;;;;;;5024152;28;20164;-86
2022/06/19 11:56:26;;;;;;;6.73;2.33;;;18.90;1.00;;;;;;5029982;28;20167;-88
2022/06/19 11:58:57;;;;;;;8.53;2.87;;;18.50;1.00;;;;;;5030775;28;20225;-87
2022/06/19 12:01:36;;;;;;;6.77;2.70;;;18.40;5.00;;;;;;5034149;28;20205;-90
2022/06/19 12:04:32;;;;;;;7.73;2.50;;;18.50;5.50;;;;;;5037321;28;20159;-87
2022/06/19 12:07:20;;;;;;;9.40;2.67;;;18.60;1.00;;;;;;5030523;28;20194;-94
2022/06/19 12:10:37;;;;;;;9.30;2.90;;;18.70;1.00;;;;;;5014588;28;20175;-87
2022/06/19 12:13:47;;;;;;;7.20;2.70;;;19.10;1.00;;;;;;5014936;28;20159;-89
2022/06/19 12:16:24;;;;;;;8.03;2.73;;;19.50;1.00;;;;;;5011029;28;20195;-92
2022/06/19 12:18:51;;;;;;;8.50;2.40;;;19.60;1.00;;;;;;5019627;28;20210;-88
2022/06/19 12:21:32;;;;;;;9.43;2.77;;;19.80;1.00;;;;;;5015626;28;20179;-88
2022/06/19 12:24:15;;;;;;;6.77;2.53;;;20.00;1.00;;;;;;5030457;28;20199;-87
2022/06/19 12:26:48;;;;;;;5.83;2.73;;;20.10;1.00;;;;;;5027804;28;20184;-89
2022/06/19 12:29:38;;;;;;;6.30;2.37;;;20.30;1.00;;;;;;5024129;28;20179;-88
2022/06/19 12:32:36;;;;;;;6.90;2.57;;;20.10;1.00;;;;;;5037928;28;20153;-87
2022/06/19 12:38:25;;;;;;;7.10;2.23;;;20.30;1.00;;;;;;5034378;28;20210;-87
2022/06/19 12:41:12;;;;;;;6.90;2.53;;;20.40;1.00;;;;;;5014301;28;20180;-89
2022/06/19 12:43:53;;;;;;;9.33;2.77;;;20.80;1.00;;;;;;5028015;28;20275;-87
2022/06/19 12:46:32;;;;;;;7.93;2.73;;;20.90;1.00;;;;;;5034949;28;20271;-94
2022/06/19 12:49:25;;;;;;;8.10;3.07;;;20.60;1.00;;;;;;5034280;28;20171;-90
2022/06/19 12:52:01;;;;;;;9.37;2.87;;;20.70;1.00;;;;;;5032502;28;20189;-90
2022/06/19 12:54:51;;;;;;;7.20;2.53;;;20.80;1.00;;;;;;5032657;28;20175;-91
2022/06/19 12:57:37;;;;;;;7.20;2.60;;;20.80;1.00;;;;;;5033105;28;20197;-94
2022/06/19 13:00:09;;;;;;;7.60;3.00;;;20.90;1.00;;;;;;5047563;28;20172;-91
2022/06/19 13:02:35;;;;;;;6.80;2.97;;;20.60;1.00;;;;;;5031244;28;20169;-91
2022/06/19 13:05:25;;;;;;;7.73;2.90;;;20.40;1.00;;;;;;5036042;28;20178;-90
2022/06/19 13:08:29;;;;;;;9.17;3.00;;;20.30;1.00;;;;;;5040093;28;20167;-94
2022/06/19 13:11:20;;;;;;;8.17;3.57;;;20.30;1.00;;;;;;5031192;28;20202;-88
2022/06/19 13:14:24;;;;;;;7.33;4.60;;;20.20;1.00;;;;;;5030898;28;20186;-86
2022/06/19 13:17:22;;;;;;;8.53;5.97;;;20.20;1.00;;;;;;5014984;28;20188;-89
2022/06/19 13:20:37;;;;;;;8.57;6.57;;;20.30;1.00;;;;;;5011598;28;20268;-87
2022/06/19 13:23:34;;;;;;;8.93;5.03;;;20.10;1.00;;;;;;5012350;28;20180;-88
2022/06/19 13:26:08;;;;;;;8.93;4.93;;;19.90;5.10;;;;;;5026951;28;20263;-88
2022/06/19 13:28:46;;;;;;;8.27;4.60;;;19.40;19.10;;;;;;5022919;28;20238;-92
2022/06/19 13:31:45;;;;;;;7.00;4.47;;;19.30;23.60;;;;;;5010963;28;20167;-87
2022/06/19 13:34:53;;;;;;;7.33;4.50;;;19.10;27.90;;;;;;4999274;28;20163;-87
2022/06/19 13:41:18;;;;;;;10.53;5.07;;;18.60;41.20;;;;;;5013057;28;20179;-86
2022/06/19 13:44:00;;;;;;;11.90;5.50;;;18.60;46.70;;;;;;5004956;28;20155;-88
2022/06/19 13:47:08;;;;;;;8.97;5.20;;;18.30;47.80;;;;;;5023186;28;20174;-90
2022/06/19 13:50:13;;;;;;;14.73;6.87;;;18.30;49.40;;;;;;4996297;28;20194;-88
2022/06/19 13:53:06;;;;;;;10.37;6.63;;;18.40;44.30;;;;;;5034852;28;20308;-88
2022/06/19 13:56:02;;;;;;;13.23;7.17;;;18.20;48.50;;;;;;5036074;28;20179;-90
2022/06/19 13:59:01;;;;;;;11.83;9.60;;;18.00;54.20;;;;;;5034021;28;20229;-90
2022/06/19 14:02:11;;;;;;;12.23;9.10;;;18.10;57.30;;;;;;5033422;28;20174;-87
2022/06/19 14:05:06;;;;;;;13.00;9.37;;;18.10;56.00;;;;;;5015622;28;20172;-86